sensor_id;sensor_type;location;lat;lon;timestamp;temperature;humidity
10306;DHT22;5198;52.382;9.020;2022-12-18T00:02:17;-6.70;99.90
10306;DHT22;5198;52.382;9.020;2022-12-18T00:06:21;-6.70;99.90
10306;DHT22;5198;52.382;9.020;2022-12-18T00:10:24;-6.70;99.90
10306;DHT22;5198;52.382;9.020;2022-12-18T00:14:27;-6.70;99.90
10306;DHT22;5198;52.382;9.020;2022-12-18T00:18:30;-6.70;99.90
10306;DHT22;5198;52.382;9.020;2022-12-18T00:22:35;-6.70;99.90
10306;DHT22;5198;52.382;9.020;2022-12-18T00:26:38;-6.70;99.90
10306;DHT22;5198;52.382;9.020;2022-12-18T00:30:41;-6.70;99.90
10306;DHT22;5198;52.382;9.020;2022-12-18T00:34:44;-6.70;99.90
10306;DHT22;5198;52.382;9.020;2022-12-18T00:38:48;-6.70;99.90
10306;DHT22;5198;52.382;9.020;2022-12-18T00:47:00;-6.70;99.90
10306;DHT22;5198;52.382;9.020;2022-12-18T00:51:03;-6.70;99.90
10306;DHT22;5198;52.382;9.020;2022-12-18T00:55:07;-6.70;99.90
10306;DHT22;5198;52.382;9.020;2022-12-18T00:59:11;-6.70;99.90
10306;DHT22;5198;52.382;9.020;2022-12-18T01:03:14;-6.70;99.90
10306;DHT22;5198;52.382;9.020;2022-12-18T01:07:16;-6.70;99.90
10306;DHT22;5198;52.382;9.020;2022-12-18T01:11:21;-6.60;99.90
10306;DHT22;5198;52.382;9.020;2022-12-18T01:15:24;-6.60;99.90
10306;DHT22;5198;52.382;9.020;2022-12-18T01:19:26;-6.60;99.90
10306;DHT22;5198;52.382;9.020;2022-12-18T01:23:29;-6.60;99.90
10306;DHT22;5198;52.382;9.020;2022-12-18T01:27:34;-6.60;99.90
10306;DHT22;5198;52.382;9.020;2022-12-18T01:31:37;-6.60;99.90
10306;DHT22;5198;52.382;9.020;2022-12-18T01:35:40;-6.60;99.90
10306;DHT22;5198;52.382;9.020;2022-12-18T01:39:43;-6.50;99.90
10306;DHT22;5198;52.382;9.020;2022-12-18T01:43:49;-6.50;99.90
10306;DHT22;5198;52.382;9.020;2022-12-18T01:47:53;-6.50;99.90
10306;DHT22;5198;52.382;9.020;2022-12-18T01:51:56;-6.40;99.90
10306;DHT22;5198;52.382;9.020;2022-12-18T01:55:59;-6.40;99.90
10306;DHT22;5198;52.382;9.020;2022-12-18T02:00:05;-6.40;99.90
10306;DHT22;5198;52.382;9.020;2022-12-18T02:04:18;-6.50;99.90
10306;DHT22;5198;52.382;9.020;2022-12-18T02:08:23;-6.50;99.90
10306;DHT22;5198;52.382;9.020;2022-12-18T02:12:30;-6.50;99.90
10306;DHT22;5198;52.382;9.020;2022-12-18T02:16:39;-6.60;99.90
10306;DHT22;5198;52.382;9.020;2022-12-18T02:20:45;-6.60;99.90
10306;DHT22;5198;52.382;9.020;2022-12-18T02:24:59;-6.60;99.90
10306;DHT22;5198;52.382;9.020;2022-12-18T02:29:05;-6.60;99.90
10306;DHT22;5198;52.382;9.020;2022-12-18T02:33:10;-6.70;99.90
10306;DHT22;5198;52.382;9.020;2022-12-18T02:37:15;-6.70;99.90
10306;DHT22;5198;52.382;9.020;2022-12-18T02:41:18;-6.80;99.90
10306;DHT22;5198;52.382;9.020;2022-12-18T02:45:23;-6.80;99.90
10306;DHT22;5198;52.382;9.020;2022-12-18T02:49:30;-6.80;99.90
10306;DHT22;5198;52.382;9.020;2022-12-18T02:53:36;-6.80;99.90
10306;DHT22;5198;52.382;9.020;2022-12-18T02:57:42;-6.80;99.90
10306;DHT22;5198;52.382;9.020;2022-12-18T03:01:51;-6.90;99.90
10306;DHT22;5198;52.382;9.020;2022-12-18T03:05:56;-6.90;99.90
10306;DHT22;5198;52.382;9.020;2022-12-18T03:10:00;-7.00;99.90
10306;DHT22;5198;52.382;9.020;2022-12-18T03:14:03;-7.00;99.90
10306;DHT22;5198;52.382;9.020;2022-12-18T03:18:13;-7.10;99.90
10306;DHT22;5198;52.382;9.020;2022-12-18T03:22:17;-7.10;99.90
10306;DHT22;5198;52.382;9.020;2022-12-18T03:26:21;-7.20;99.90
10306;DHT22;5198;52.382;9.020;2022-12-18T03:30:25;-7.30;99.90
10306;DHT22;5198;52.382;9.020;2022-12-18T03:34:32;-7.30;99.90
10306;DHT22;5198;52.382;9.020;2022-12-18T03:38:36;-7.40;99.90
10306;DHT22;5198;52.382;9.020;2022-12-18T03:42:41;-7.50;99.90
10306;DHT22;5198;52.382;9.020;2022-12-18T03:46:47;-7.50;99.90
10306;DHT22;5198;52.382;9.020;2022-12-18T03:50:57;-7.60;99.90
10306;DHT22;5198;52.382;9.020;2022-12-18T03:55:02;-7.60;99.90
10306;DHT22;5198;52.382;9.020;2022-12-18T03:59:06;-7.60;99.90
10306;DHT22;5198;52.382;9.020;2022-12-18T04:03:10;-7.60;99.90
10306;DHT22;5198;52.382;9.020;2022-12-18T04:07:15;-7.60;99.90
10306;DHT22;5198;52.382;9.020;2022-12-18T04:11:18;-7.70;99.90
10306;DHT22;5198;52.382;9.020;2022-12-18T04:15:21;-7.60;99.90
10306;DHT22;5198;52.382;9.020;2022-12-18T04:19:24;-7.70;99.90
10306;DHT22;5198;52.382;9.020;2022-12-18T04:23:28;-7.70;99.90
10306;DHT22;5198;52.382;9.020;2022-12-18T04:27:31;-7.70;99.90
10306;DHT22;5198;52.382;9.020;2022-12-18T04:31:34;-7.70;99.90
10306;DHT22;5198;52.382;9.020;2022-12-18T04:35:37;-7.70;99.90
10306;DHT22;5198;52.382;9.020;2022-12-18T04:39:41;-7.80;99.90
10306;DHT22;5198;52.382;9.020;2022-12-18T04:43:44;-7.80;99.90
10306;DHT22;5198;52.382;9.020;2022-12-18T04:47:47;-7.90;99.90
10306;DHT22;5198;52.382;9.020;2022-12-18T04:51:50;-7.90;99.90
10306;DHT22;5198;52.382;9.020;2022-12-18T04:56:03;-7.90;99.90
10306;DHT22;5198;52.382;9.020;2022-12-18T05:00:06;-8.00;99.90
10306;DHT22;5198;52.382;9.020;2022-12-18T05:04:09;-8.00;99.90
10306;DHT22;5198;52.382;9.020;2022-12-18T05:08:12;-8.00;99.90
10306;DHT22;5198;52.382;9.020;2022-12-18T05:12:16;-8.00;99.90
10306;DHT22;5198;52.382;9.020;2022-12-18T05:16:19;-8.00;99.90
10306;DHT22;5198;52.382;9.020;2022-12-18T05:20:22;-8.00;99.90
10306;DHT22;5198;52.382;9.020;2022-12-18T05:24:25;-7.90;99.90
10306;DHT22;5198;52.382;9.020;2022-12-18T05:28:31;-8.00;99.90
10306;DHT22;5198;52.382;9.020;2022-12-18T05:32:34;-7.90;99.90
10306;DHT22;5198;52.382;9.020;2022-12-18T05:36:36;-8.00;99.90
10306;DHT22;5198;52.382;9.020;2022-12-18T05:40:41;-8.00;99.90
10306;DHT22;5198;52.382;9.020;2022-12-18T05:44:45;-8.00;99.90
10306;DHT22;5198;52.382;9.020;2022-12-18T05:48:48;-8.00;99.90
10306;DHT22;5198;52.382;9.020;2022-12-18T05:52:52;-8.00;99.90
10306;DHT22;5198;52.382;9.020;2022-12-18T05:56:55;-8.00;99.90
10306;DHT22;5198;52.382;9.020;2022-12-18T06:01:05;-8.00;99.90
10306;DHT22;5198;52.382;9.020;2022-12-18T06:05:08;-8.00;99.90
10306;DHT22;5198;52.382;9.020;2022-12-18T06:09:12;-8.10;99.90
10306;DHT22;5198;52.382;9.020;2022-12-18T06:13:15;-8.10;99.90
10306;DHT22;5198;52.382;9.020;2022-12-18T06:17:19;-8.20;99.90
10306;DHT22;5198;52.382;9.020;2022-12-18T06:21:22;-8.10;99.90
10306;DHT22;5198;52.382;9.020;2022-12-18T06:25:25;-8.10;99.90
10306;DHT22;5198;52.382;9.020;2022-12-18T06:29:28;-8.10;99.90
10306;DHT22;5198;52.382;9.020;2022-12-18T06:33:32;-8.10;99.90
10306;DHT22;5198;52.382;9.020;2022-12-18T06:37:35;-8.00;99.90
10306;DHT22;5198;52.382;9.020;2022-12-18T06:41:37;-8.00;99.90
10306;DHT22;5198;52.382;9.020;2022-12-18T06:45:40;-8.00;99.90
10306;DHT22;5198;52.382;9.020;2022-12-18T06:49:45;-8.00;99.90
10306;DHT22;5198;52.382;9.020;2022-12-18T06:53:48;-7.90;99.90
10306;DHT22;5198;52.382;9.020;2022-12-18T06:57:51;-7.90;99.90
10306;DHT22;5198;52.382;9.020;2022-12-18T07:01:54;-8.00;99.90
10306;DHT22;5198;52.382;9.020;2022-12-18T07:05:58;-7.90;99.90
10306;DHT22;5198;52.382;9.020;2022-12-18T07:10:01;-7.90;99.90
10306;DHT22;5198;52.382;9.020;2022-12-18T07:14:04;-7.80;99.90
10306;DHT22;5198;52.382;9.020;2022-12-18T07:18:07;-7.80;99.90
10306;DHT22;5198;52.382;9.020;2022-12-18T07:22:11;-7.80;99.90
10306;DHT22;5198;52.382;9.020;2022-12-18T07:26:15;-7.80;99.90
10306;DHT22;5198;52.382;9.020;2022-12-18T07:30:18;-7.80;99.90
10306;DHT22;5198;52.382;9.020;2022-12-18T07:34:21;-7.80;99.90
10306;DHT22;5198;52.382;9.020;2022-12-18T07:38:25;-7.80;99.90
10306;DHT22;5198;52.382;9.020;2022-12-18T07:42:28;-7.70;99.90
10306;DHT22;5198;52.382;9.020;2022-12-18T07:46:34;-7.70;99.90
10306;DHT22;5198;52.382;9.020;2022-12-18T07:50:37;-7.60;99.90
10306;DHT22;5198;52.382;9.020;2022-12-18T07:54:41;-7.50;99.90
10306;DHT22;5198;52.382;9.020;2022-12-18T07:58:44;-7.40;99.90
10306;DHT22;5198;52.382;9.020;2022-12-18T08:02:48;-7.40;99.90
10306;DHT22;5198;52.382;9.020;2022-12-18T08:06:51;-7.20;99.90
10306;DHT22;5198;52.382;9.020;2022-12-18T08:10:56;-7.10;99.90
10306;DHT22;5198;52.382;9.020;2022-12-18T08:14:59;-6.90;99.90
10306;DHT22;5198;52.382;9.020;2022-12-18T08:19:02;-6.80;99.90
10306;DHT22;5198;52.382;9.020;2022-12-18T08:23:04;-6.60;99.90
10306;DHT22;5198;52.382;9.020;2022-12-18T08:27:09;-6.50;99.90
10306;DHT22;5198;52.382;9.020;2022-12-18T08:31:32;-6.40;99.90
10306;DHT22;5198;52.382;9.020;2022-12-18T08:35:35;-6.20;99.90
10306;DHT22;5198;52.382;9.020;2022-12-18T08:39:46;-6.10;99.90
10306;DHT22;5198;52.382;9.020;2022-12-18T08:43:50;-5.90;99.90
10306;DHT22;5198;52.382;9.020;2022-12-18T08:48:11;-5.80;99.90
10306;DHT22;5198;52.382;9.020;2022-12-18T08:52:19;-5.70;99.90
10306;DHT22;5198;52.382;9.020;2022-12-18T08:56:22;-5.60;99.90
10306;DHT22;5198;52.382;9.020;2022-12-18T09:00:27;-5.40;99.90
10306;DHT22;5198;52.382;9.020;2022-12-18T09:04:29;-4.40;99.90
10306;DHT22;5198;52.382;9.020;2022-12-18T09:08:32;-3.90;99.90
10306;DHT22;5198;52.382;9.020;2022-12-18T09:12:35;-3.50;99.90
10306;DHT22;5198;52.382;9.020;2022-12-18T09:16:39;-1.70;99.90
10306;DHT22;5198;52.382;9.020;2022-12-18T09:20:42;-1.60;99.90
10306;DHT22;5198;52.382;9.020;2022-12-18T09:24:45;-0.80;99.90
10306;DHT22;5198;52.382;9.020;2022-12-18T09:28:48;0.00;99.90
10306;DHT22;5198;52.382;9.020;2022-12-18T09:32:52;0.20;99.90
10306;DHT22;5198;52.382;9.020;2022-12-18T09:36:55;0.50;99.90
10306;DHT22;5198;52.382;9.020;2022-12-18T09:40:59;0.60;99.90
10306;DHT22;5198;52.382;9.020;2022-12-18T09:45:03;0.70;99.90
10306;DHT22;5198;52.382;9.020;2022-12-18T09:49:11;0.70;99.90
10306;DHT22;5198;52.382;9.020;2022-12-18T09:53:15;0.70;99.90
10306;DHT22;5198;52.382;9.020;2022-12-18T09:57:20;0.70;99.90
10306;DHT22;5198;52.382;9.020;2022-12-18T10:01:24;0.70;99.90
10306;DHT22;5198;52.382;9.020;2022-12-18T10:05:41;1.00;99.90
10306;DHT22;5198;52.382;9.020;2022-12-18T10:09:47;1.30;99.90
10306;DHT22;5198;52.382;9.020;2022-12-18T10:13:54;1.90;99.90
10306;DHT22;5198;52.382;9.020;2022-12-18T10:17:58;3.10;99.90
10306;DHT22;5198;52.382;9.020;2022-12-18T10:22:08;3.10;99.90
10306;DHT22;5198;52.382;9.020;2022-12-18T10:26:13;4.10;99.90
10306;DHT22;5198;52.382;9.020;2022-12-18T10:30:17;4.40;99.90
10306;DHT22;5198;52.382;9.020;2022-12-18T10:34:21;5.00;99.90
10306;DHT22;5198;52.382;9.020;2022-12-18T10:38:26;5.50;99.90
10306;DHT22;5198;52.382;9.020;2022-12-18T10:42:29;6.00;99.90
10306;DHT22;5198;52.382;9.020;2022-12-18T10:46:32;6.50;99.90
10306;DHT22;5198;52.382;9.020;2022-12-18T10:50:36;7.10;99.90
10306;DHT22;5198;52.382;9.020;2022-12-18T10:55:01;7.30;99.90
10306;DHT22;5198;52.382;9.020;2022-12-18T10:59:05;7.40;99.90
10306;DHT22;5198;52.382;9.020;2022-12-18T11:03:17;7.40;99.90
10306;DHT22;5198;52.382;9.020;2022-12-18T11:07:46;7.30;99.90
10306;DHT22;5198;52.382;9.020;2022-12-18T11:11:51;7.30;99.90
10306;DHT22;5198;52.382;9.020;2022-12-18T11:15:55;7.30;99.90
10306;DHT22;5198;52.382;9.020;2022-12-18T11:19:58;7.20;99.90
10306;DHT22;5198;52.382;9.020;2022-12-18T11:24:01;7.00;99.90
10306;DHT22;5198;52.382;9.020;2022-12-18T11:28:08;6.80;99.90
10306;DHT22;5198;52.382;9.020;2022-12-18T11:32:29;6.50;99.90
10306;DHT22;5198;52.382;9.020;2022-12-18T11:36:36;6.30;99.90
10306;DHT22;5198;52.382;9.020;2022-12-18T11:40:42;6.00;99.90
10306;DHT22;5198;52.382;9.020;2022-12-18T11:44:48;5.80;99.90
10306;DHT22;5198;52.382;9.020;2022-12-18T11:48:54;5.60;99.90
10306;DHT22;5198;52.382;9.020;2022-12-18T11:52:59;5.60;99.90
10306;DHT22;5198;52.382;9.020;2022-12-18T11:57:07;5.50;99.90
10306;DHT22;5198;52.382;9.020;2022-12-18T12:01:15;5.40;99.90
10306;DHT22;5198;52.382;9.020;2022-12-18T12:05:22;5.30;99.90
10306;DHT22;5198;52.382;9.020;2022-12-18T12:09:29;5.10;99.90
10306;DHT22;5198;52.382;9.020;2022-12-18T12:13:37;4.90;99.90
10306;DHT22;5198;52.382;9.020;2022-12-18T12:17:45;4.80;99.90
10306;DHT22;5198;52.382;9.020;2022-12-18T12:21:51;4.60;99.90
10306;DHT22;5198;52.382;9.020;2022-12-18T12:25:57;4.40;99.90
10306;DHT22;5198;52.382;9.020;2022-12-18T12:30:03;4.10;99.90
10306;DHT22;5198;52.382;9.020;2022-12-18T12:34:12;3.80;99.90
10306;DHT22;5198;52.382;9.020;2022-12-18T12:38:20;3.60;99.90
10306;DHT22;5198;52.382;9.020;2022-12-18T12:42:26;3.30;99.90
10306;DHT22;5198;52.382;9.020;2022-12-18T12:46:47;3.10;99.90
10306;DHT22;5198;52.382;9.020;2022-12-18T12:50:51;2.90;99.90
10306;DHT22;5198;52.382;9.020;2022-12-18T12:54:55;2.70;99.90
10306;DHT22;5198;52.382;9.020;2022-12-18T12:59:00;2.50;99.90
10306;DHT22;5198;52.382;9.020;2022-12-18T13:07:26;2.20;99.90
10306;DHT22;5198;52.382;9.020;2022-12-18T13:11:34;2.00;99.90
10306;DHT22;5198;52.382;9.020;2022-12-18T13:16:03;1.90;99.90
10306;DHT22;5198;52.382;9.020;2022-12-18T13:20:09;1.80;99.90
10306;DHT22;5198;52.382;9.020;2022-12-18T13:24:20;1.70;99.90
10306;DHT22;5198;52.382;9.020;2022-12-18T13:32:43;1.50;99.90
10306;DHT22;5198;52.382;9.020;2022-12-18T13:36:46;1.50;99.90
10306;DHT22;5198;52.382;9.020;2022-12-18T13:40:57;1.40;99.90
10306;DHT22;5198;52.382;9.020;2022-12-18T13:45:01;1.30;99.90
10306;DHT22;5198;52.382;9.020;2022-12-18T13:49:05;1.30;99.90
10306;DHT22;5198;52.382;9.020;2022-12-18T13:53:18;1.20;99.90
10306;DHT22;5198;52.382;9.020;2022-12-18T13:57:27;1.20;99.90
10306;DHT22;5198;52.382;9.020;2022-12-18T14:01:30;1.10;99.90
10306;DHT22;5198;52.382;9.020;2022-12-18T14:05:34;1.10;99.90
10306;DHT22;5198;52.382;9.020;2022-12-18T14:09:40;1.00;99.90
10306;DHT22;5198;52.382;9.020;2022-12-18T14:13:46;1.00;99.90
10306;DHT22;5198;52.382;9.020;2022-12-18T14:17:49;0.90;99.90
10306;DHT22;5198;52.382;9.020;2022-12-18T14:21:52;0.90;99.90
10306;DHT22;5198;52.382;9.020;2022-12-18T14:25:57;0.90;99.90
10306;DHT22;5198;52.382;9.020;2022-12-18T14:30:18;0.90;99.90
10306;DHT22;5198;52.382;9.020;2022-12-18T14:34:26;0.80;99.90
10306;DHT22;5198;52.382;9.020;2022-12-18T14:38:29;0.80;99.90
10306;DHT22;5198;52.382;9.020;2022-12-18T14:42:32;0.80;99.90
10306;DHT22;5198;52.382;9.020;2022-12-18T14:46:37;0.70;99.90
10306;DHT22;5198;52.382;9.020;2022-12-18T14:50:41;0.70;99.90
10306;DHT22;5198;52.382;9.020;2022-12-18T14:54:45;0.60;99.90
10306;DHT22;5198;52.382;9.020;2022-12-18T14:58:49;0.60;99.90
10306;DHT22;5198;52.382;9.020;2022-12-18T15:02:55;0.60;99.90
10306;DHT22;5198;52.382;9.020;2022-12-18T15:07:09;0.50;99.90
10306;DHT22;5198;52.382;9.020;2022-12-18T15:11:25;0.50;99.90
10306;DHT22;5198;52.382;9.020;2022-12-18T15:15:44;0.40;99.90
10306;DHT22;5198;52.382;9.020;2022-12-18T15:19:49;0.40;99.90
10306;DHT22;5198;52.382;9.020;2022-12-18T15:23:53;0.30;99.90
10306;DHT22;5198;52.382;9.020;2022-12-18T15:27:57;0.20;99.90
10306;DHT22;5198;52.382;9.020;2022-12-18T15:32:01;0.20;99.90
10306;DHT22;5198;52.382;9.020;2022-12-18T15:36:08;0.10;99.90
10306;DHT22;5198;52.382;9.020;2022-12-18T15:40:12;0.10;99.90
10306;DHT22;5198;52.382;9.020;2022-12-18T15:44:21;0.10;99.90
10306;DHT22;5198;52.382;9.020;2022-12-18T15:48:24;0.10;99.90
10306;DHT22;5198;52.382;9.020;2022-12-18T15:52:28;0.10;99.90
10306;DHT22;5198;52.382;9.020;2022-12-18T15:56:32;0.10;99.90
10306;DHT22;5198;52.382;9.020;2022-12-18T16:00:52;0.10;99.90
10306;DHT22;5198;52.382;9.020;2022-12-18T16:04:56;0.20;99.90
10306;DHT22;5198;52.382;9.020;2022-12-18T16:09:00;0.20;99.90
10306;DHT22;5198;52.382;9.020;2022-12-18T16:13:03;0.20;99.90
10306;DHT22;5198;52.382;9.020;2022-12-18T16:17:09;0.20;99.90
10306;DHT22;5198;52.382;9.020;2022-12-18T16:21:12;0.30;99.90
10306;DHT22;5198;52.382;9.020;2022-12-18T16:25:18;0.30;99.90
10306;DHT22;5198;52.382;9.020;2022-12-18T16:29:25;0.30;99.90
10306;DHT22;5198;52.382;9.020;2022-12-18T16:33:29;0.30;99.90
10306;DHT22;5198;52.382;9.020;2022-12-18T16:37:31;0.30;99.90
10306;DHT22;5198;52.382;9.020;2022-12-18T16:41:36;0.30;99.90
10306;DHT22;5198;52.382;9.020;2022-12-18T16:45:39;0.30;99.90
10306;DHT22;5198;52.382;9.020;2022-12-18T16:49:42;0.30;99.90
10306;DHT22;5198;52.382;9.020;2022-12-18T16:53:46;0.30;99.90
10306;DHT22;5198;52.382;9.020;2022-12-18T16:57:50;0.40;99.90
10306;DHT22;5198;52.382;9.020;2022-12-18T17:01:53;0.40;99.90
10306;DHT22;5198;52.382;9.020;2022-12-18T17:06:01;0.40;99.90
10306;DHT22;5198;52.382;9.020;2022-12-18T17:10:04;0.50;99.90
10306;DHT22;5198;52.382;9.020;2022-12-18T17:14:09;0.50;99.90
10306;DHT22;5198;52.382;9.020;2022-12-18T17:18:12;0.50;99.90
10306;DHT22;5198;52.382;9.020;2022-12-18T17:22:15;0.60;99.90
10306;DHT22;5198;52.382;9.020;2022-12-18T17:26:18;0.60;99.90
10306;DHT22;5198;52.382;9.020;2022-12-18T17:30:22;0.60;99.90
10306;DHT22;5198;52.382;9.020;2022-12-18T17:34:25;0.70;99.90
10306;DHT22;5198;52.382;9.020;2022-12-18T17:38:30;0.70;99.90
10306;DHT22;5198;52.382;9.020;2022-12-18T17:42:33;0.70;99.90
10306;DHT22;5198;52.382;9.020;2022-12-18T17:46:37;0.80;99.90
10306;DHT22;5198;52.382;9.020;2022-12-18T17:50:40;0.80;99.90
10306;DHT22;5198;52.382;9.020;2022-12-18T17:54:44;0.80;99.90
10306;DHT22;5198;52.382;9.020;2022-12-18T17:58:48;0.80;99.90
10306;DHT22;5198;52.382;9.020;2022-12-18T18:02:52;0.90;99.90
10306;DHT22;5198;52.382;9.020;2022-12-18T18:06:56;0.80;99.90
10306;DHT22;5198;52.382;9.020;2022-12-18T18:11:02;0.90;99.90
10306;DHT22;5198;52.382;9.020;2022-12-18T18:15:20;0.90;99.90
10306;DHT22;5198;52.382;9.020;2022-12-18T18:19:25;0.90;99.90
10306;DHT22;5198;52.382;9.020;2022-12-18T18:23:27;1.00;99.90
10306;DHT22;5198;52.382;9.020;2022-12-18T18:27:31;1.00;99.90
10306;DHT22;5198;52.382;9.020;2022-12-18T18:31:39;1.00;99.90
10306;DHT22;5198;52.382;9.020;2022-12-18T18:35:43;1.00;99.90
10306;DHT22;5198;52.382;9.020;2022-12-18T18:39:55;1.10;99.90
10306;DHT22;5198;52.382;9.020;2022-12-18T18:43:58;1.10;99.90
10306;DHT22;5198;52.382;9.020;2022-12-18T18:48:02;1.00;99.90
10306;DHT22;5198;52.382;9.020;2022-12-18T18:52:08;1.10;99.90
10306;DHT22;5198;52.382;9.020;2022-12-18T18:56:12;1.10;99.90
10306;DHT22;5198;52.382;9.020;2022-12-18T19:00:37;1.10;99.90
10306;DHT22;5198;52.382;9.020;2022-12-18T19:04:41;1.10;99.90
10306;DHT22;5198;52.382;9.020;2022-12-18T19:08:48;1.10;99.90
10306;DHT22;5198;52.382;9.020;2022-12-18T19:12:52;1.10;99.90
10306;DHT22;5198;52.382;9.020;2022-12-18T19:17:12;1.20;99.90
10306;DHT22;5198;52.382;9.020;2022-12-18T19:21:15;1.20;99.90
10306;DHT22;5198;52.382;9.020;2022-12-18T19:25:20;1.20;99.90
10306;DHT22;5198;52.382;9.020;2022-12-18T19:29:23;1.20;99.90
10306;DHT22;5198;52.382;9.020;2022-12-18T19:33:26;1.20;99.90
10306;DHT22;5198;52.382;9.020;2022-12-18T19:37:45;1.20;99.90
10306;DHT22;5198;52.382;9.020;2022-12-18T19:41:51;1.10;99.90
10306;DHT22;5198;52.382;9.020;2022-12-18T19:45:54;1.10;99.90
10306;DHT22;5198;52.382;9.020;2022-12-18T19:49:57;1.10;99.90
10306;DHT22;5198;52.382;9.020;2022-12-18T19:54:01;1.20;99.90
10306;DHT22;5198;52.382;9.020;2022-12-18T19:58:08;1.10;99.90
10306;DHT22;5198;52.382;9.020;2022-12-18T20:02:12;1.10;99.90
10306;DHT22;5198;52.382;9.020;2022-12-18T20:06:18;1.10;99.90
10306;DHT22;5198;52.382;9.020;2022-12-18T20:10:22;1.10;99.90
10306;DHT22;5198;52.382;9.020;2022-12-18T20:14:27;1.10;99.90
10306;DHT22;5198;52.382;9.020;2022-12-18T20:18:31;1.10;99.90
10306;DHT22;5198;52.382;9.020;2022-12-18T20:22:34;1.10;99.90
10306;DHT22;5198;52.382;9.020;2022-12-18T20:26:37;1.00;99.90
10306;DHT22;5198;52.382;9.020;2022-12-18T20:30:42;1.00;99.90
10306;DHT22;5198;52.382;9.020;2022-12-18T20:34:45;1.00;99.90
10306;DHT22;5198;52.382;9.020;2022-12-18T20:38:49;1.00;99.90
10306;DHT22;5198;52.382;9.020;2022-12-18T20:42:57;1.00;99.90
10306;DHT22;5198;52.382;9.020;2022-12-18T20:47:02;1.00;99.90
10306;DHT22;5198;52.382;9.020;2022-12-18T20:51:10;1.00;99.90
10306;DHT22;5198;52.382;9.020;2022-12-18T20:55:13;1.00;99.90
10306;DHT22;5198;52.382;9.020;2022-12-18T20:59:16;1.00;99.90
10306;DHT22;5198;52.382;9.020;2022-12-18T21:03:21;1.00;99.90
10306;DHT22;5198;52.382;9.020;2022-12-18T21:07:24;1.00;99.90
10306;DHT22;5198;52.382;9.020;2022-12-18T21:11:28;1.00;99.90
10306;DHT22;5198;52.382;9.020;2022-12-18T21:15:51;1.00;99.90
10306;DHT22;5198;52.382;9.020;2022-12-18T21:19:56;1.00;99.90
10306;DHT22;5198;52.382;9.020;2022-12-18T21:23:59;1.00;99.90
10306;DHT22;5198;52.382;9.020;2022-12-18T21:28:01;1.00;99.90
10306;DHT22;5198;52.382;9.020;2022-12-18T21:32:04;1.00;99.90
10306;DHT22;5198;52.382;9.020;2022-12-18T21:36:11;1.00;99.90
10306;DHT22;5198;52.382;9.020;2022-12-18T21:40:14;1.00;99.90
10306;DHT22;5198;52.382;9.020;2022-12-18T21:44:17;0.90;99.90
10306;DHT22;5198;52.382;9.020;2022-12-18T21:48:19;1.00;99.90
10306;DHT22;5198;52.382;9.020;2022-12-18T21:52:23;1.00;99.90
10306;DHT22;5198;52.382;9.020;2022-12-18T21:56:43;1.00;99.90
10306;DHT22;5198;52.382;9.020;2022-12-18T22:00:45;1.00;99.90
10306;DHT22;5198;52.382;9.020;2022-12-18T22:04:49;1.00;99.90
10306;DHT22;5198;52.382;9.020;2022-12-18T22:08:53;0.90;99.90
10306;DHT22;5198;52.382;9.020;2022-12-18T22:12:56;1.00;99.90
10306;DHT22;5198;52.382;9.020;2022-12-18T22:16:59;1.00;99.90
10306;DHT22;5198;52.382;9.020;2022-12-18T22:21:03;1.00;99.90
10306;DHT22;5198;52.382;9.020;2022-12-18T22:25:09;1.00;99.90
10306;DHT22;5198;52.382;9.020;2022-12-18T22:29:12;1.00;99.90
10306;DHT22;5198;52.382;9.020;2022-12-18T22:33:35;0.90;99.90
10306;DHT22;5198;52.382;9.020;2022-12-18T22:37:37;1.00;99.90
10306;DHT22;5198;52.382;9.020;2022-12-18T22:41:42;1.00;99.90
10306;DHT22;5198;52.382;9.020;2022-12-18T22:45:45;1.00;99.90
10306;DHT22;5198;52.382;9.020;2022-12-18T22:49:49;1.00;99.90
10306;DHT22;5198;52.382;9.020;2022-12-18T22:53:52;1.00;99.90
10306;DHT22;5198;52.382;9.020;2022-12-18T22:57:56;1.00;99.90
10306;DHT22;5198;52.382;9.020;2022-12-18T23:01:59;1.00;99.90
10306;DHT22;5198;52.382;9.020;2022-12-18T23:06:03;1.00;99.90
10306;DHT22;5198;52.382;9.020;2022-12-18T23:10:06;1.10;99.90
10306;DHT22;5198;52.382;9.020;2022-12-18T23:14:11;1.10;99.90
10306;DHT22;5198;52.382;9.020;2022-12-18T23:18:14;1.10;99.90
10306;DHT22;5198;52.382;9.020;2022-12-18T23:22:17;1.10;99.90
10306;DHT22;5198;52.382;9.020;2022-12-18T23:26:21;1.10;99.90
10306;DHT22;5198;52.382;9.020;2022-12-18T23:30:26;1.10;99.90
10306;DHT22;5198;52.382;9.020;2022-12-18T23:34:29;1.10;99.90
10306;DHT22;5198;52.382;9.020;2022-12-18T23:38:32;1.20;99.90
10306;DHT22;5198;52.382;9.020;2022-12-18T23:42:36;1.20;99.90
10306;DHT22;5198;52.382;9.020;2022-12-18T23:46:40;1.20;99.90
10306;DHT22;5198;52.382;9.020;2022-12-18T23:50:43;1.20;99.90
10306;DHT22;5198;52.382;9.020;2022-12-18T23:54:46;1.20;99.90
10306;DHT22;5198;52.382;9.020;2022-12-18T23:58:48;1.20;99.90
